createdAt,value
2023-01-10T00:00:56.763Z,81.51
2023-01-10T00:03:27.134Z,80.96
2023-01-10T00:05:57.499Z,81.20
2023-01-10T00:08:28.011Z,81.29
2023-01-10T00:10:58.411Z,81.26
2023-01-10T00:13:28.632Z,81.37
2023-01-10T00:15:58.840Z,81.37
2023-01-10T00:18:29.684Z,81.59
2023-01-10T00:20:59.907Z,81.72
2023-01-10T00:23:30.232Z,81.84
2023-01-10T00:26:00.568Z,81.13
2023-01-10T00:28:30.928Z,81.13
2023-01-10T00:31:02.081Z,81.01
2023-01-10T00:33:36.171Z,80.79
2023-01-10T00:36:09.370Z,81.15
2023-01-10T00:38:39.760Z,81.15
2023-01-10T00:41:10.158Z,81.18
2023-01-10T00:43:40.792Z,81.46
2023-01-10T00:46:11.620Z,81.46
2023-01-10T00:48:42.286Z,80.95
2023-01-10T00:51:12.646Z,81.15
2023-01-10T00:53:42.940Z,81.15
2023-01-10T00:56:13.297Z,80.30
2023-01-10T00:58:46.533Z,80.30
2023-01-10T01:01:20.079Z,80.07
2023-01-10T01:03:53.035Z,79.97
2023-01-10T01:06:23.489Z,79.97
2023-01-10T01:08:53.757Z,80.03
2023-01-10T01:11:25.134Z,81.07
2023-01-10T01:13:55.585Z,81.03
2023-01-10T01:16:26.005Z,80.52
2023-01-10T01:18:56.400Z,80.45
2023-01-10T01:21:27.688Z,80.32
2023-01-10T01:23:58.119Z,80.64
2023-01-10T01:26:28.498Z,80.41
2023-01-10T01:29:02.441Z,81.05
2023-01-10T01:31:34.426Z,80.86
2023-01-10T01:34:04.911Z,80.86
2023-01-10T01:36:35.648Z,80.67
2023-01-10T01:39:06.958Z,80.98
2023-01-10T01:41:37.412Z,81.20
2023-01-10T01:44:13.232Z,81.08
2023-01-10T01:46:52.252Z,81.08
2023-01-10T01:49:24.616Z,80.95
2023-01-10T01:52:03.556Z,81.15
2023-01-10T01:54:37.932Z,80.62
2023-01-10T01:57:34.323Z,80.39
2023-01-10T02:00:10.299Z,80.36
2023-01-10T02:02:57.633Z,80.36
2023-01-10T02:05:18.695Z,80.31
2023-01-10T02:07:51.849Z,80.08
2023-01-10T02:10:43.351Z,80.08
2023-01-10T02:13:17.109Z,79.38
2023-01-10T02:16:09.570Z,79.12
2023-01-10T02:18:42.908Z,78.74
2023-01-10T02:21:35.682Z,78.74
2023-01-10T02:24:21.181Z,78.64
2023-01-10T02:27:20.969Z,78.12
2023-01-10T02:29:57.106Z,78.05
2023-01-10T02:32:43.864Z,78.05
2023-01-10T02:35:11.042Z,78.20
2023-01-10T02:37:52.946Z,78.20
2023-01-10T02:40:47.443Z,77.92
2023-01-10T02:43:20.665Z,77.53
2023-01-10T02:46:10.693Z,77.16
2023-01-10T02:48:45.163Z,77.16
2023-01-10T02:51:41.827Z,77.51
2023-01-10T02:54:23.529Z,76.95
2023-01-10T02:57:11.787Z,76.95
2023-01-10T03:00:09.163Z,76.39
2023-01-10T03:03:12.808Z,76.18
2023-01-10T03:09:16.602Z,76.06
2023-01-10T03:11:51.267Z,76.15
2023-01-10T03:14:27.162Z,75.47
2023-01-10T03:17:05.881Z,76.04
2023-01-10T03:19:41.650Z,76.04
2023-01-10T03:22:14.597Z,75.38
2023-01-10T03:24:48.565Z,75.39
2023-01-10T03:30:45.323Z,75.50
2023-01-10T03:33:18.441Z,76.07
2023-01-10T03:36:10.881Z,76.02
2023-01-10T03:42:09.506Z,75.94
2023-01-10T03:45:06.681Z,76.21
2023-01-10T03:47:42.899Z,76.03
2023-01-10T03:53:03.186Z,75.53
2023-01-10T03:55:37.951Z,75.53
2023-01-10T03:58:10.574Z,75.34
2023-01-10T04:00:41.249Z,75.50
2023-01-10T04:03:16.547Z,74.97
2023-01-10T04:05:49.031Z,74.83
2023-01-10T04:08:20.640Z,74.83
2023-01-10T04:10:51.474Z,74.69
2023-01-10T04:13:21.900Z,74.53
2023-01-10T04:15:52.246Z,74.53
2023-01-10T04:18:22.795Z,74.62
2023-01-10T04:20:53.276Z,74.88
2023-01-10T04:23:23.499Z,74.79
2023-01-10T04:25:53.904Z,74.79
2023-01-10T04:28:24.796Z,74.36
2023-01-10T04:30:55.378Z,74.37
2023-01-10T04:33:28.242Z,74.61
2023-01-10T04:35:58.587Z,74.53
2023-01-10T04:38:29.073Z,74.41
2023-01-10T04:40:59.599Z,74.54
2023-01-10T04:43:29.989Z,74.34
2023-01-10T04:46:00.735Z,74.64
2023-01-10T04:48:31.427Z,73.97
2023-01-10T04:51:01.737Z,74.04
2023-01-10T04:53:34.496Z,73.86
2023-01-10T04:56:06.612Z,73.57
2023-01-10T04:58:38.670Z,73.36
2023-01-10T05:01:30.101Z,73.92
2023-01-10T05:04:00.899Z,73.33
2023-01-10T05:06:31.665Z,73.33
2023-01-10T05:09:02.265Z,72.54
2023-01-10T05:11:33.008Z,72.54
2023-01-10T05:14:04.117Z,72.06
2023-01-10T05:16:38.330Z,72.50
2023-01-10T05:19:18.870Z,71.56
2023-01-10T05:21:51.929Z,71.63
2023-01-10T05:24:22.901Z,71.72
2023-01-10T05:26:53.548Z,71.26
2023-01-10T05:29:23.764Z,71.40
2023-01-10T05:31:54.399Z,71.33
2023-01-10T05:34:28.212Z,71.33
2023-01-10T05:37:00.369Z,71.34
2023-01-10T05:39:30.711Z,71.34
2023-01-10T05:42:02.819Z,70.48
2023-01-10T05:44:34.399Z,71.26
2023-01-10T05:47:04.935Z,70.79
2023-01-10T05:49:35.475Z,70.36
2023-01-10T05:52:06.528Z,70.50
2023-01-10T05:54:37.923Z,70.22
2023-01-10T05:57:09.788Z,70.25
2023-01-10T05:59:40.035Z,70.25
2023-01-10T06:02:10.391Z,69.50
2023-01-10T06:04:40.872Z,69.49
2023-01-10T06:07:11.241Z,69.46
2023-01-10T06:09:41.634Z,69.39
2023-01-10T06:12:11.958Z,70.04
2023-01-10T06:14:43.981Z,69.78
2023-01-10T06:17:14.550Z,69.00
2023-01-10T06:19:44.968Z,68.91
2023-01-10T06:22:31.842Z,69.05
2023-01-10T06:25:02.978Z,69.26
2023-01-10T06:27:33.938Z,69.26
2023-01-10T06:30:04.812Z,69.02
2023-01-10T06:32:35.800Z,68.98
2023-01-10T06:35:07.070Z,67.90
2023-01-10T06:37:38.331Z,68.11
2023-01-10T06:40:09.643Z,67.96
2023-01-10T06:42:41.289Z,68.19
2023-01-10T06:45:12.126Z,67.89
2023-01-10T06:47:51.021Z,67.92
2023-01-10T06:50:21.923Z,67.92
2023-01-10T06:53:03.648Z,68.03
2023-01-10T06:55:33.950Z,68.16
2023-01-10T06:58:05.063Z,67.58
2023-01-10T07:00:35.698Z,67.77
2023-01-10T07:03:06.366Z,67.71
2023-01-10T07:05:37.121Z,67.71
2023-01-10T07:08:09.108Z,67.10
2023-01-10T07:10:41.590Z,66.95
2023-01-10T07:13:12.455Z,66.73
2023-01-10T07:15:44.511Z,67.05
2023-01-10T07:18:15.105Z,67.20
2023-01-10T07:20:46.931Z,67.29
2023-01-10T07:23:17.906Z,67.29
2023-01-10T07:25:48.280Z,67.00
2023-01-10T07:28:18.813Z,66.64
2023-01-10T07:30:49.148Z,66.32
2023-01-10T07:33:19.525Z,66.36
2023-01-10T07:35:51.305Z,66.79
2023-01-10T07:38:21.872Z,66.36
2023-01-10T07:40:52.370Z,66.46
2023-01-10T07:43:23.158Z,66.50
2023-01-10T07:45:53.570Z,66.47
2023-01-10T07:48:23.915Z,66.27
2023-01-10T07:51:17.972Z,66.27
2023-01-10T07:53:48.378Z,66.37
2023-01-10T07:56:18.778Z,66.09
2023-01-10T07:58:49.821Z,65.80
2023-01-10T08:01:20.316Z,66.10
2023-01-10T08:03:50.957Z,66.11
2023-01-10T08:06:21.382Z,65.48
2023-01-10T08:08:51.939Z,65.48
2023-01-10T08:11:22.309Z,65.33
2023-01-10T08:13:52.683Z,65.64
2023-01-10T08:16:23.180Z,65.80
2023-01-10T08:18:55.012Z,65.33
2023-01-10T08:21:34.662Z,65.07
2023-01-10T08:24:05.373Z,64.95
2023-01-10T08:26:36.544Z,65.06
2023-01-10T08:29:07.167Z,64.58
2023-01-10T08:31:38.023Z,64.06
2023-01-10T08:34:09.594Z,63.91
2023-01-10T08:36:41.038Z,63.72
2023-01-10T08:39:17.661Z,63.72
2023-01-10T08:41:54.460Z,63.29
2023-01-10T08:44:26.651Z,63.04
2023-01-10T08:46:58.275Z,62.68
2023-01-10T08:49:31.377Z,63.38
2023-01-10T08:52:02.600Z,62.71
2023-01-10T08:54:52.523Z,62.61
2023-01-10T08:57:23.415Z,62.61
2023-01-10T08:59:53.959Z,62.35
2023-01-10T09:02:24.548Z,62.23
2023-01-10T09:04:55.019Z,61.31
2023-01-10T09:07:25.844Z,61.41
2023-01-10T09:09:56.365Z,60.96
2023-01-10T09:12:27.485Z,61.05
2023-01-10T09:14:59.152Z,61.05
2023-01-10T09:17:29.487Z,60.47
2023-01-10T09:20:00.201Z,60.36
2023-01-10T09:22:30.509Z,60.76
2023-01-10T09:25:01.280Z,61.19
2023-01-10T09:27:31.678Z,61.19
2023-01-10T09:30:02.056Z,61.37
2023-01-10T09:32:32.769Z,61.09
2023-01-10T09:35:04.143Z,60.55
2023-01-10T09:37:55.528Z,60.69
2023-01-10T09:40:52.033Z,59.93
2023-01-10T09:44:01.237Z,60.40
2023-01-10T09:46:57.551Z,59.48
2023-01-10T09:49:52.294Z,59.74
2023-01-10T09:52:38.099Z,58.34
2023-01-10T09:55:32.853Z,58.34
2023-01-10T09:58:09.653Z,58.32
2023-01-10T10:01:01.701Z,58.30
2023-01-10T10:06:43.602Z,57.48
2023-01-10T10:09:18.912Z,57.48
2023-01-10T14:11:47.955Z,39.45
2023-01-10T14:14:58.646Z,38.84
2023-01-10T14:17:39.676Z,39.00
2023-01-10T14:20:19.617Z,39.00
2023-01-10T14:23:01.620Z,38.88
2023-01-10T14:25:50.999Z,38.76
2023-01-10T14:28:48.172Z,38.76
2023-01-10T14:34:20.176Z,39.19
2023-01-10T14:37:20.239Z,38.79
2023-01-10T14:39:52.235Z,38.92
2023-01-10T14:42:28.900Z,39.01
2023-01-10T14:47:56.625Z,39.22
2023-01-10T14:50:29.974Z,39.02
2023-01-10T14:53:00.429Z,39.02
2023-01-10T14:55:33.683Z,38.97
2023-01-10T14:58:03.995Z,38.21
2023-01-10T15:00:36.624Z,38.30
2023-01-10T15:03:27.994Z,38.72
2023-01-10T15:05:59.402Z,38.87
2023-01-10T15:08:33.840Z,38.86
2023-01-10T15:11:08.111Z,38.81
2023-01-10T15:13:47.712Z,38.71
2023-01-10T15:19:12.119Z,38.32
2023-01-10T15:21:45.219Z,38.55
2023-01-10T15:24:51.382Z,38.72
2023-01-10T15:27:21.857Z,39.31
2023-01-10T15:29:55.403Z,39.11
2023-01-10T15:32:31.634Z,39.50
2023-01-10T15:35:04.722Z,39.77
2023-01-10T15:37:38.355Z,39.77
2023-01-10T15:40:29.749Z,39.40
2023-01-10T15:43:24.239Z,39.35
2023-01-10T15:45:58.291Z,39.87
2023-01-10T15:48:35.709Z,40.03
2023-01-10T15:51:15.141Z,39.78
2023-01-10T15:54:01.149Z,39.78
2023-01-10T15:57:03.178Z,40.65
2023-01-10T15:59:36.346Z,40.83
2023-01-10T16:02:34.099Z,41.65
2023-01-10T16:05:10.259Z,42.20
2023-01-10T16:07:47.649Z,42.36
2023-01-10T16:10:26.907Z,42.48
2023-01-10T16:13:11.228Z,42.10
2023-01-10T16:15:44.451Z,42.34
2023-01-10T16:18:15.290Z,42.34
2023-01-10T16:21:06.386Z,42.59
2023-01-10T16:23:37.518Z,42.95
2023-01-10T16:26:10.198Z,42.98
2023-01-10T16:28:45.850Z,43.54
2023-01-10T16:31:16.367Z,43.45
2023-01-10T16:33:48.238Z,43.86
2023-01-10T16:36:20.260Z,44.67
2023-01-10T16:38:51.060Z,45.13
2023-01-10T16:41:24.108Z,45.92
2023-01-10T16:43:54.485Z,45.92
2023-01-10T16:46:25.480Z,46.47
2023-01-10T16:55:11.904Z,47.64
2023-01-10T16:57:37.304Z,47.64
2023-01-10T17:00:11.703Z,48.28
2023-01-10T17:02:47.255Z,48.28
2023-01-10T17:05:17.771Z,48.96
2023-01-10T17:10:56.917Z,49.37
2023-01-10T17:13:36.315Z,49.51
2023-01-10T17:16:07.266Z,49.54
2023-01-10T17:18:46.632Z,50.10
2023-01-10T17:21:31.538Z,50.10
2023-01-10T17:24:03.784Z,50.44
2023-01-10T17:26:41.182Z,50.64
2023-01-10T17:32:11.367Z,51.49
2023-01-10T17:34:43.747Z,51.93
2023-01-10T17:37:28.072Z,51.93
2023-01-10T17:39:58.930Z,52.45
2023-01-10T17:51:48.261Z,53.78
2023-01-10T17:54:36.411Z,53.59
2023-01-10T18:00:23.590Z,53.94
2023-01-10T18:02:56.020Z,54.61
2023-01-10T18:05:27.664Z,54.71
2023-01-10T18:07:58.046Z,55.20
2023-01-10T18:10:30.058Z,55.20
2023-01-10T18:13:04.759Z,56.36
2023-01-10T18:15:35.538Z,56.26
2023-01-10T18:18:06.022Z,56.55
2023-01-10T18:20:43.029Z,56.99
2023-01-10T18:23:15.492Z,57.67
2023-01-10T18:25:57.714Z,57.57
2023-01-10T18:28:42.527Z,57.57
2023-01-10T18:31:07.443Z,58.56
2023-01-10T18:33:38.728Z,58.73
2023-01-10T18:36:12.885Z,59.18
2023-01-10T18:38:51.925Z,60.07
2023-01-10T18:41:23.775Z,60.91
2023-01-10T18:43:56.678Z,62.03
2023-01-10T18:46:29.735Z,62.03
2023-01-10T18:49:00.128Z,62.98
2023-01-10T18:51:33.530Z,62.85
2023-01-10T18:54:06.955Z,62.85
2023-01-10T18:56:44.909Z,61.88
2023-01-10T18:59:16.723Z,61.88
2023-01-10T19:01:50.323Z,61.41
2023-01-10T19:04:21.442Z,62.18
2023-01-10T23:07:16.228Z,77.25
2023-01-10T23:09:46.490Z,76.03
2023-01-10T23:12:16.888Z,75.74
2023-01-10T23:14:47.823Z,75.50
2023-01-10T23:17:18.334Z,75.11
2023-01-10T23:19:48.693Z,75.11
2023-01-10T23:22:19.222Z,74.20
2023-01-10T23:24:50.089Z,73.92
2023-01-10T23:27:20.476Z,74.01
2023-01-10T23:29:50.924Z,74.31
2023-01-10T23:32:21.269Z,74.31
2023-01-10T23:34:52.047Z,74.06
2023-01-10T23:37:22.479Z,74.28
2023-01-10T23:39:52.784Z,74.27
2023-01-10T23:42:23.272Z,74.16
2023-01-10T23:44:53.743Z,74.09
2023-01-10T23:47:24.754Z,74.06
2023-01-10T23:49:55.130Z,73.91
2023-01-10T23:52:25.566Z,74.46
2023-01-10T23:54:56.020Z,74.01
2023-01-10T23:57:26.766Z,74.04
2023-01-10T23:59:57.028Z,74.04
